createdAt,value
2019-03-22T00:01:38.354Z,4.78
2019-03-22T00:04:06.620Z,4.83
2019-03-22T00:06:35.071Z,4.53
2019-03-22T00:09:05.541Z,4.45
2019-03-22T00:11:34.072Z,4.65
2019-03-22T00:14:02.450Z,5.03
2019-03-22T00:16:30.698Z,4.17
2019-03-22T00:18:59.062Z,4.47
2019-03-22T00:21:27.540Z,4.37
2019-03-22T00:23:55.920Z,4.03
2019-03-22T00:26:24.185Z,4.28
2019-03-22T00:28:52.591Z,4.12
2019-03-22T00:31:21.263Z,4.70
2019-03-22T00:33:49.647Z,4.00
2019-03-22T00:36:18.012Z,4.80
2019-03-22T00:38:46.367Z,4.55
2019-03-22T00:41:14.807Z,4.25
2019-03-22T00:43:43.448Z,5.35
2019-03-22T00:46:12.121Z,4.97
2019-03-22T00:48:40.421Z,4.45
2019-03-22T00:51:08.883Z,4.33
2019-03-22T00:53:37.204Z,5.00
2019-03-22T00:56:05.481Z,5.47
2019-03-22T00:58:33.841Z,5.17
2019-03-22T01:01:02.196Z,5.10
2019-03-22T01:03:31.644Z,5.37
2019-03-22T01:05:59.974Z,5.53
2019-03-22T01:08:28.508Z,5.90
2019-03-22T01:10:57.027Z,5.20
2019-03-22T01:13:25.427Z,6.40
2019-03-22T01:15:53.835Z,5.90
2019-03-22T01:18:22.281Z,5.53
2019-03-22T01:20:50.726Z,5.50
2019-03-22T01:23:19.086Z,6.03
2019-03-22T01:25:47.502Z,6.05
2019-03-22T01:28:15.982Z,5.95
2019-03-22T01:30:45.298Z,5.75
2019-03-22T01:33:13.653Z,6.72
2019-03-22T01:35:42.668Z,5.78
2019-03-22T01:38:10.918Z,5.72
2019-03-22T01:40:39.677Z,5.78
2019-03-22T01:43:08.099Z,5.60
2019-03-22T01:45:36.490Z,5.42
2019-03-22T01:48:04.884Z,5.40
2019-03-22T01:50:33.383Z,5.53
2019-03-22T01:53:01.715Z,5.00
2019-03-22T01:55:30.243Z,5.45
2019-03-22T01:57:58.838Z,6.00
2019-03-22T02:00:27.148Z,5.22
2019-03-22T02:02:55.364Z,5.28
2019-03-22T02:05:23.835Z,4.85
2019-03-22T02:07:52.163Z,4.85
2019-03-22T02:10:20.507Z,5.50
2019-03-22T02:12:48.949Z,5.05
2019-03-22T02:15:18.201Z,5.03
2019-03-22T02:17:46.503Z,5.08
2019-03-22T02:20:16.867Z,5.00
2019-03-22T02:22:46.199Z,5.30
2019-03-22T02:25:16.398Z,4.95
2019-03-22T02:27:44.874Z,5.05
2019-03-22T02:30:13.596Z,4.53
2019-03-22T02:32:41.941Z,5.30
2019-03-22T02:35:21.320Z,5.22
2019-03-22T02:37:41.304Z,5.25
2019-03-22T02:40:09.742Z,4.33
2019-03-22T02:42:38.110Z,4.50
2019-03-22T02:45:07.619Z,4.62
2019-03-22T02:47:35.964Z,4.67
2019-03-22T02:50:17.966Z,4.47
2019-03-22T02:52:36.418Z,4.55
2019-03-22T02:55:05.639Z,4.53
2019-03-22T02:57:33.828Z,5.10
2019-03-22T03:00:02.330Z,4.87
2019-03-22T03:02:31.857Z,4.53
2019-03-22T03:05:00.518Z,4.55
2019-03-22T03:07:29.345Z,5.15
2019-03-22T03:09:57.734Z,4.90
2019-03-22T03:12:26.089Z,4.80
2019-03-22T03:14:54.378Z,4.67
2019-03-22T03:17:22.789Z,4.95
2019-03-22T03:19:51.090Z,4.15
2019-03-22T03:22:19.522Z,4.67
2019-03-22T03:24:47.989Z,4.95
2019-03-22T03:27:16.382Z,4.75
2019-03-22T03:29:44.782Z,4.87
2019-03-22T03:32:13.513Z,4.92
2019-03-22T03:34:41.953Z,4.28
2019-03-22T03:37:10.271Z,4.53
2019-03-22T03:39:38.755Z,5.20
2019-03-22T03:42:07.257Z,4.80
2019-03-22T03:44:35.747Z,5.20
2019-03-22T03:47:10.286Z,5.75
2019-03-22T03:49:37.800Z,5.35
2019-03-22T03:52:06.180Z,5.70
2019-03-22T03:54:34.524Z,5.37
2019-03-22T03:57:03.450Z,5.70
2019-03-22T03:59:31.765Z,5.72
2019-03-22T04:02:00.190Z,5.67
2019-03-22T04:04:28.675Z,6.70
2019-03-22T04:06:57.031Z,6.03
2019-03-22T04:09:25.485Z,7.08
2019-03-22T04:11:54.037Z,8.05
2019-03-22T04:14:22.443Z,6.85
2019-03-22T04:16:50.920Z,6.47
2019-03-22T04:19:20.183Z,6.78
2019-03-22T04:21:48.521Z,6.75
2019-03-22T04:24:17.104Z,6.87
2019-03-22T04:26:45.274Z,6.78
2019-03-22T04:29:13.927Z,6.97
2019-03-22T04:31:42.326Z,6.50
2019-03-22T04:34:10.803Z,6.47
2019-03-22T04:36:39.192Z,6.70
2019-03-22T04:39:08.010Z,6.75
2019-03-22T04:41:36.573Z,6.60
2019-03-22T04:44:04.853Z,6.78
2019-03-22T04:46:33.791Z,7.60
2019-03-22T04:49:02.607Z,7.15
2019-03-22T04:51:31.318Z,6.58
2019-03-22T04:54:02.634Z,6.40
2019-03-22T04:56:34.373Z,6.83
2019-03-22T04:59:17.921Z,6.85
2019-03-22T05:01:38.483Z,6.65
2019-03-22T05:04:07.902Z,6.70
2019-03-22T05:07:03.371Z,6.53
2019-03-22T05:09:33.686Z,6.20
2019-03-22T05:12:04.092Z,6.80
2019-03-22T05:14:35.897Z,7.05
2019-03-22T05:17:05.602Z,6.12
2019-03-22T05:19:38.044Z,6.53
2019-03-22T05:22:09.332Z,6.42
2019-03-22T05:24:42.536Z,6.62
2019-03-22T05:27:11.811Z,6.00
2019-03-22T05:29:42.018Z,6.30
2019-03-22T05:32:15.425Z,6.60
2019-03-22T05:34:43.802Z,6.50
2019-03-22T05:37:12.329Z,7.25
2019-03-22T05:39:40.799Z,6.25
2019-03-22T05:42:09.077Z,5.87
2019-03-22T05:44:37.335Z,6.37
2019-03-22T05:47:06.944Z,6.35
2019-03-22T05:49:35.222Z,6.25
2019-03-22T05:52:03.562Z,6.53
2019-03-22T05:54:31.984Z,6.67
2019-03-22T05:57:00.934Z,7.15
2019-03-22T05:59:41.576Z,7.35
2019-03-22T06:02:00.986Z,7.03
2019-03-22T06:04:29.445Z,7.22
2019-03-22T06:06:57.759Z,7.12
2019-03-22T06:09:26.140Z,8.13
2019-03-22T06:11:54.513Z,6.90
2019-03-22T06:14:22.847Z,6.50
2019-03-22T06:16:51.599Z,6.08
2019-03-22T06:19:19.983Z,5.65
2019-03-22T06:21:48.278Z,6.00
2019-03-22T06:24:16.758Z,6.50
2019-03-22T06:26:45.193Z,5.47
2019-03-22T06:29:13.475Z,5.17
2019-03-22T06:31:41.902Z,5.10
2019-03-22T06:34:10.218Z,5.47
2019-03-22T06:36:38.597Z,5.25
2019-03-22T06:39:08.623Z,5.83
2019-03-22T06:41:37.381Z,5.87
2019-03-22T06:44:05.807Z,5.70
2019-03-22T06:46:34.624Z,5.35
2019-03-22T06:49:06.726Z,5.70
2019-03-22T06:51:35.956Z,4.87
2019-03-22T06:54:04.560Z,4.92
2019-03-22T06:56:32.939Z,5.55
2019-03-22T06:59:03.718Z,5.35
2019-03-22T07:01:32.168Z,5.20
2019-03-22T07:04:00.719Z,4.67
2019-03-22T07:06:29.956Z,5.00
2019-03-22T07:08:58.408Z,4.95
2019-03-22T07:11:26.893Z,4.60
2019-03-22T07:13:55.457Z,4.80
2019-03-22T07:16:23.856Z,4.70
2019-03-22T07:18:52.436Z,4.62
2019-03-22T07:21:20.816Z,4.83
2019-03-22T07:23:49.401Z,4.45
2019-03-22T07:26:18.011Z,4.47
2019-03-22T07:28:46.331Z,4.42
2019-03-22T07:31:14.682Z,5.70
2019-03-22T07:33:43.256Z,4.90
2019-03-22T07:36:11.607Z,5.00
2019-03-22T07:38:39.966Z,5.65
2019-03-22T07:41:08.827Z,5.70
2019-03-22T07:43:37.122Z,5.03
2019-03-22T07:46:05.517Z,5.28
2019-03-22T07:48:33.935Z,5.28
2019-03-22T07:51:02.206Z,5.05
2019-03-22T07:53:30.436Z,4.78
2019-03-22T07:55:59.091Z,4.25
2019-03-22T07:58:27.436Z,6.10
2019-03-22T08:00:58.167Z,5.35
2019-03-22T08:03:26.691Z,5.08
2019-03-22T08:05:54.950Z,5.15
2019-03-22T08:08:23.231Z,5.40
2019-03-22T08:10:51.601Z,5.25
2019-03-22T08:13:20.010Z,10.78
2019-03-22T08:15:48.297Z,5.28
2019-03-22T08:18:16.692Z,5.72
2019-03-22T08:20:45.100Z,4.87
2019-03-22T08:23:20.755Z,5.45
2019-03-22T08:25:50.726Z,5.37
2019-03-22T08:28:19.128Z,5.37
2019-03-22T08:30:47.423Z,5.17
2019-03-22T08:33:15.712Z,4.60
2019-03-22T08:35:44.041Z,4.72
2019-03-22T08:38:12.429Z,4.70
2019-03-22T08:40:40.735Z,4.75
2019-03-22T08:43:09.062Z,4.80
2019-03-22T08:45:37.472Z,4.60
2019-03-22T08:48:05.984Z,5.30
2019-03-22T08:50:34.195Z,5.20
2019-03-22T08:53:02.556Z,4.53
2019-03-22T08:55:31.177Z,4.55
2019-03-22T08:57:59.480Z,4.83
2019-03-22T09:00:38.489Z,4.75
2019-03-22T09:02:58.050Z,5.25
2019-03-22T09:05:26.322Z,5.30
2019-03-22T09:07:54.800Z,4.55
2019-03-22T09:10:23.241Z,5.15
2019-03-22T09:12:51.536Z,4.87
2019-03-22T09:15:19.873Z,5.05
2019-03-22T09:17:48.298Z,4.87
2019-03-22T09:20:16.739Z,5.28
2019-03-22T09:22:45.012Z,4.90
2019-03-22T09:25:13.410Z,5.22
2019-03-22T09:27:42.357Z,5.15
2019-03-22T09:30:11.650Z,4.87
2019-03-22T09:32:40.326Z,5.58
2019-03-22T09:35:08.813Z,6.15
2019-03-22T09:37:37.203Z,5.85
2019-03-22T09:40:08.417Z,5.30
2019-03-22T09:42:36.509Z,5.78
2019-03-22T09:45:05.985Z,5.95
2019-03-22T09:47:34.520Z,6.10
2019-03-22T09:50:04.541Z,6.35
2019-03-22T09:52:33.842Z,6.67
2019-03-22T09:55:12.804Z,6.40
2019-03-22T09:57:32.593Z,5.95
2019-03-22T10:00:01.121Z,6.97
2019-03-22T10:02:29.635Z,5.53
2019-03-22T10:04:57.983Z,6.08
2019-03-22T10:07:26.458Z,6.60
2019-03-22T10:09:54.842Z,5.92
2019-03-22T10:12:23.244Z,5.45
2019-03-22T10:14:51.916Z,5.85
2019-03-22T10:17:20.312Z,5.70
2019-03-22T10:19:48.662Z,5.72
2019-03-22T10:22:18.773Z,5.90
2019-03-22T10:24:48.481Z,5.80
2019-03-22T10:27:17.020Z,5.97
2019-03-22T10:29:45.382Z,6.58
2019-03-22T10:32:13.756Z,6.25
2019-03-22T10:34:42.091Z,6.35
2019-03-22T10:37:10.597Z,6.12
2019-03-22T10:39:39.102Z,6.70
2019-03-22T10:42:07.592Z,6.62
2019-03-22T10:44:39.206Z,6.70
2019-03-22T10:47:06.088Z,6.40
2019-03-22T10:49:34.722Z,6.42
2019-03-22T10:52:04.603Z,7.03
2019-03-22T10:54:33.412Z,6.75
2019-03-22T10:57:01.847Z,6.75
2019-03-22T10:59:30.115Z,6.90
2019-03-22T11:02:03.666Z,7.03
2019-03-22T11:04:28.665Z,6.53
2019-03-22T11:06:59.465Z,6.47
2019-03-22T11:09:27.864Z,6.70
2019-03-22T11:11:56.414Z,6.75
2019-03-22T11:14:25.005Z,6.03
2019-03-22T11:16:53.312Z,6.17
2019-03-22T11:19:21.796Z,6.17
2019-03-22T11:21:51.480Z,6.35
2019-03-22T11:24:19.954Z,6.10
2019-03-22T11:26:48.828Z,6.97
2019-03-22T11:29:20.536Z,6.20
2019-03-22T11:31:48.912Z,5.45
2019-03-22T11:34:17.303Z,5.67
2019-03-22T11:36:45.786Z,5.62
2019-03-22T11:39:15.923Z,6.12
2019-03-22T11:41:44.394Z,6.08
2019-03-22T11:44:12.769Z,5.72
2019-03-22T11:46:41.073Z,5.53
2019-03-22T11:49:09.449Z,5.60
2019-03-22T11:51:40.290Z,5.15
2019-03-22T11:54:09.878Z,5.37
2019-03-22T11:56:38.409Z,5.10
2019-03-22T11:59:07.106Z,4.92
2019-03-22T12:01:35.903Z,4.72
2019-03-22T12:04:05.331Z,5.08
2019-03-22T12:06:33.693Z,5.30
2019-03-22T12:09:01.968Z,5.28
2019-03-22T12:11:31.644Z,5.20
2019-03-22T12:14:00.024Z,5.45
2019-03-22T12:16:28.291Z,5.00
2019-03-22T12:18:56.676Z,5.03
2019-03-22T12:21:25.183Z,5.20
2019-03-22T12:23:53.583Z,4.08
2019-03-22T12:26:22.090Z,4.05
2019-03-22T12:28:51.595Z,4.28
2019-03-22T12:31:20.156Z,4.37
2019-03-22T12:33:50.864Z,4.45
2019-03-22T12:36:19.259Z,4.17
2019-03-22T12:38:47.763Z,4.50
2019-03-22T12:41:16.114Z,4.42
2019-03-22T12:43:44.487Z,4.62
2019-03-22T12:46:12.824Z,4.45
2019-03-22T12:48:41.334Z,4.22
2019-03-22T12:51:10.061Z,4.58
2019-03-22T12:53:38.364Z,4.70
2019-03-22T12:56:06.607Z,4.25
2019-03-22T12:58:35.269Z,4.25
2019-03-22T13:01:04.154Z,5.10
2019-03-22T13:03:32.663Z,4.58
2019-03-22T13:06:01.129Z,6.20
2019-03-22T13:08:30.502Z,4.95
2019-03-22T13:10:58.880Z,5.00
2019-03-22T13:13:27.417Z,5.20
2019-03-22T13:15:55.862Z,5.03
2019-03-22T13:18:24.692Z,4.50
2019-03-22T13:20:53.111Z,4.65
2019-03-22T13:23:21.444Z,4.42
2019-03-22T13:25:49.891Z,5.60
2019-03-22T13:28:18.524Z,4.60
2019-03-22T13:30:52.474Z,4.72
2019-03-22T13:33:20.970Z,4.35
2019-03-22T13:35:49.341Z,5.37
2019-03-22T13:38:17.689Z,4.55
2019-03-22T13:40:46.366Z,5.08
2019-03-22T13:43:14.688Z,4.00
2019-03-22T13:45:43.139Z,4.33
2019-03-22T13:48:11.747Z,4.33
2019-03-22T13:50:40.545Z,4.00
2019-03-22T13:53:09.041Z,3.70
2019-03-22T13:55:37.294Z,5.35
2019-03-22T13:58:05.737Z,4.28
2019-03-22T14:00:34.182Z,3.67
2019-03-22T14:03:03.025Z,3.85
2019-03-22T14:05:32.304Z,3.52
2019-03-22T14:08:00.743Z,4.00
2019-03-22T14:10:33.767Z,3.42
2019-03-22T14:13:02.408Z,4.10
2019-03-22T14:15:36.370Z,4.40
2019-03-22T14:18:04.965Z,2.70
2019-03-22T14:20:33.536Z,3.67
2019-03-22T14:23:02.162Z,2.83
2019-03-22T14:25:31.676Z,3.00
2019-03-22T14:28:00.109Z,3.40
2019-03-22T14:30:31.103Z,5.47
2019-03-22T14:32:59.519Z,3.67
2019-03-22T14:35:28.600Z,3.95
2019-03-22T14:37:57.252Z,3.58
2019-03-22T14:40:32.916Z,3.72
2019-03-22T14:43:03.205Z,3.25
2019-03-22T14:45:31.671Z,3.37
2019-03-22T14:48:00.975Z,3.70
2019-03-22T14:50:29.641Z,4.05
2019-03-22T14:53:03.191Z,4.40
2019-03-22T14:55:31.752Z,4.10
2019-03-22T14:58:00.258Z,4.33
2019-03-22T15:00:28.807Z,4.42
2019-03-22T15:02:57.220Z,4.45
2019-03-22T15:05:25.994Z,4.80
2019-03-22T15:07:54.437Z,5.00
2019-03-22T15:10:23.179Z,5.37
2019-03-22T15:12:52.119Z,6.00
2019-03-22T15:15:38.898Z,6.17
2019-03-22T15:18:41.641Z,6.20
2019-03-22T15:21:38.914Z,5.72
2019-03-22T15:24:29.643Z,5.58
2019-03-22T15:27:22.697Z,5.75
2019-03-22T15:30:23.069Z,6.33
2019-03-22T15:33:09.854Z,5.72
2019-03-22T15:36:07.522Z,6.22
2019-03-22T15:39:10.387Z,5.53
2019-03-22T15:41:38.987Z,6.12
2019-03-22T15:44:07.585Z,5.87
2019-03-22T15:46:36.227Z,6.10
2019-03-22T15:49:04.725Z,6.37
2019-03-22T15:51:33.892Z,6.37
2019-03-22T15:54:07.424Z,6.08
2019-03-22T15:56:35.807Z,6.22
2019-03-22T15:59:04.165Z,6.70
2019-03-22T16:01:33.113Z,6.25
2019-03-22T16:04:01.637Z,5.92
2019-03-22T16:06:31.064Z,6.83
2019-03-22T16:08:59.488Z,6.20
2019-03-22T16:11:27.956Z,6.62
2019-03-22T16:13:56.443Z,6.70
2019-03-22T16:16:25.253Z,6.83
2019-03-22T16:18:59.326Z,6.80
2019-03-22T16:21:31.184Z,6.03
2019-03-22T16:23:59.855Z,5.90
2019-03-22T16:26:28.285Z,5.87
2019-03-22T16:28:57.914Z,6.17
2019-03-22T16:31:26.309Z,5.65
2019-03-22T16:33:55.292Z,5.78
2019-03-22T16:36:23.741Z,5.60
2019-03-22T16:38:52.235Z,5.60
2019-03-22T16:41:20.613Z,6.45
2019-03-22T16:43:49.328Z,5.87
2019-03-22T16:46:17.803Z,5.95
2019-03-22T16:48:46.315Z,5.37
2019-03-22T16:51:14.799Z,5.28
2019-03-22T16:53:43.481Z,5.28
2019-03-22T16:56:11.854Z,5.80
2019-03-22T16:58:41.535Z,5.75
2019-03-22T17:01:10.422Z,5.85
2019-03-22T17:03:38.814Z,5.20
2019-03-22T17:06:07.381Z,5.35
2019-03-22T17:08:35.920Z,5.90
2019-03-22T17:11:05.372Z,5.65
2019-03-22T17:13:33.807Z,5.50
2019-03-22T17:16:02.569Z,5.50
2019-03-22T17:18:31.242Z,5.15
2019-03-22T17:20:59.822Z,4.83
2019-03-22T17:23:28.283Z,5.30
2019-03-22T17:26:00.040Z,5.33
2019-03-22T17:28:28.496Z,5.50
2019-03-22T17:30:56.937Z,4.83
2019-03-22T17:33:25.663Z,5.25
2019-03-22T17:35:54.196Z,4.95
2019-03-22T17:38:30.273Z,5.50
2019-03-22T17:40:58.683Z,5.45
2019-03-22T17:43:28.326Z,5.12
2019-03-22T17:45:56.681Z,5.10
2019-03-22T17:48:25.134Z,5.33
2019-03-22T17:50:53.691Z,5.10
2019-03-22T17:53:22.291Z,5.25
2019-03-22T17:55:50.904Z,5.05
2019-03-22T17:58:19.903Z,5.40
2019-03-22T18:00:48.345Z,6.25
2019-03-22T18:03:16.842Z,5.00
2019-03-22T18:05:45.284Z,4.92
2019-03-22T18:08:13.698Z,5.22
2019-03-22T18:10:42.260Z,6.78
2019-03-22T18:13:10.863Z,6.80
2019-03-22T18:15:39.178Z,5.53
2019-03-22T18:18:15.841Z,5.35
2019-03-22T18:20:44.277Z,5.85
2019-03-22T18:23:12.857Z,5.47
2019-03-22T18:25:43.072Z,5.00
2019-03-22T18:28:12.199Z,4.85
2019-03-22T18:30:40.544Z,5.87
2019-03-22T18:33:10.757Z,5.35
2019-03-22T18:35:40.278Z,5.28
2019-03-22T18:38:09.021Z,10.43
2019-03-22T18:40:37.538Z,8.48
2019-03-22T18:43:05.915Z,6.55
2019-03-22T18:45:34.263Z,6.80
2019-03-22T18:48:02.646Z,6.62
2019-03-22T18:50:31.060Z,6.53
2019-03-22T18:52:59.638Z,7.20
2019-03-22T18:55:28.259Z,6.53
2019-03-22T18:57:56.706Z,14.47
2019-03-22T19:00:25.292Z,11.57
2019-03-22T19:02:53.953Z,8.33
2019-03-22T19:05:22.335Z,6.80
2019-03-22T19:07:50.682Z,6.78
2019-03-22T19:10:19.237Z,6.47
2019-03-22T19:12:47.511Z,5.78
2019-03-22T19:15:16.922Z,6.80
2019-03-22T19:17:45.362Z,6.22
2019-03-22T19:20:14.012Z,6.47
2019-03-22T19:22:42.387Z,6.55
2019-03-22T19:25:14.489Z,6.47
2019-03-22T19:27:43.642Z,8.13
2019-03-22T19:30:12.184Z,9.70
2019-03-22T19:32:40.536Z,10.10
2019-03-22T19:35:09.703Z,8.23
2019-03-22T19:37:38.173Z,7.40
2019-03-22T19:40:07.685Z,7.45
2019-03-22T19:42:36.340Z,12.68
2019-03-22T19:45:05.435Z,7.67
2019-03-22T19:47:33.790Z,8.43
2019-03-22T19:50:03.929Z,8.15
2019-03-22T19:52:35.328Z,15.30
2019-03-22T19:55:04.552Z,13.83
2019-03-22T19:57:32.972Z,9.63
2019-03-22T20:00:01.894Z,7.95
2019-03-22T20:02:30.613Z,6.97
2019-03-22T20:05:04.555Z,6.80
2019-03-22T20:07:30.306Z,25.23
2019-03-22T20:09:58.570Z,18.48
2019-03-22T20:12:26.924Z,10.48
2019-03-22T20:14:55.377Z,8.80
2019-03-22T20:17:28.371Z,7.15
2019-03-22T20:19:57.093Z,6.78
2019-03-22T20:22:25.427Z,5.75
2019-03-22T20:24:54.100Z,6.17
2019-03-22T20:27:22.736Z,11.70
2019-03-22T20:29:51.383Z,8.10
2019-03-22T20:32:19.877Z,5.87
2019-03-22T20:34:49.344Z,5.72
2019-03-22T20:37:17.855Z,5.58
2019-03-22T20:39:46.112Z,7.78
2019-03-22T20:42:15.570Z,7.80
2019-03-22T20:44:44.068Z,6.50
2019-03-22T20:47:12.526Z,6.65
2019-03-22T20:49:42.173Z,5.65
2019-03-22T20:52:10.597Z,6.37
2019-03-22T20:54:39.083Z,5.80
2019-03-22T20:57:08.431Z,5.78
2019-03-22T20:59:36.724Z,5.70
2019-03-22T21:02:05.470Z,5.55
2019-03-22T21:04:33.903Z,5.80
2019-03-22T21:07:09.285Z,5.40
2019-03-22T21:09:42.420Z,5.30
2019-03-22T21:12:10.771Z,6.03
2019-03-22T21:14:39.217Z,6.03
2019-03-22T21:17:10.233Z,5.62
2019-03-22T21:19:38.519Z,5.80
2019-03-22T21:22:06.964Z,6.17
2019-03-22T21:24:35.803Z,5.67
2019-03-22T21:27:14.849Z,6.15
2019-03-22T21:29:43.681Z,6.05
2019-03-22T21:32:09.768Z,6.20
2019-03-22T21:34:38.216Z,6.42
2019-03-22T21:37:06.809Z,10.53
2019-03-22T21:39:35.341Z,6.87
2019-03-22T21:42:03.907Z,6.30
2019-03-22T21:44:32.318Z,5.87
2019-03-22T21:47:01.300Z,5.87
2019-03-22T21:49:30.199Z,5.58
2019-03-22T21:51:58.768Z,5.75
2019-03-22T21:54:27.295Z,5.60
2019-03-22T21:56:55.791Z,5.45
2019-03-22T21:59:24.464Z,5.17
2019-03-22T22:01:53.021Z,4.90
2019-03-22T22:04:21.977Z,5.45
2019-03-22T22:06:50.592Z,5.35
2019-03-22T22:09:19.256Z,6.40
2019-03-22T22:11:48.094Z,5.12
2019-03-22T22:14:16.546Z,5.58
2019-03-22T22:16:45.156Z,5.20
2019-03-22T22:19:13.584Z,5.53
2019-03-22T22:21:42.705Z,5.70
2019-03-22T22:24:11.188Z,5.62
2019-03-22T22:26:39.669Z,6.30
2019-03-22T22:29:09.105Z,6.12
2019-03-22T22:31:37.559Z,5.65
2019-03-22T22:34:09.089Z,5.20
2019-03-22T22:36:38.000Z,5.45
2019-03-22T22:39:06.547Z,5.55
2019-03-22T22:41:36.908Z,5.62
2019-03-22T22:44:05.540Z,4.65
2019-03-22T22:46:34.123Z,5.00
2019-03-22T22:49:02.630Z,5.28
2019-03-22T22:51:31.121Z,5.75
2019-03-22T22:53:59.565Z,5.58
2019-03-22T22:56:28.205Z,6.25
2019-03-22T22:58:57.158Z,7.40
2019-03-22T23:01:26.030Z,8.18
2019-03-22T23:03:54.898Z,7.08
2019-03-22T23:06:23.569Z,7.00
2019-03-22T23:08:52.121Z,7.08
2019-03-22T23:11:21.308Z,6.65
2019-03-22T23:13:49.921Z,6.70
2019-03-22T23:16:18.408Z,6.67
2019-03-22T23:18:48.011Z,6.28
2019-03-22T23:21:16.576Z,6.67
2019-03-22T23:23:44.976Z,6.65
2019-03-22T23:26:13.459Z,6.55
2019-03-22T23:28:41.999Z,5.78
2019-03-22T23:31:10.349Z,6.28
2019-03-22T23:33:39.122Z,6.83
2019-03-22T23:36:07.709Z,7.50
2019-03-22T23:38:36.139Z,6.78
2019-03-22T23:41:04.561Z,7.65
2019-03-22T23:43:33.158Z,6.67
2019-03-22T23:46:01.617Z,7.20
2019-03-22T23:48:30.336Z,7.08
2019-03-22T23:50:58.916Z,7.00
2019-03-22T23:53:27.447Z,6.90
2019-03-22T23:55:56.176Z,7.15
2019-03-22T23:58:24.643Z,6.60
